Roque Bluffs, Maine
Current Conditions -  °F | °C
As of 7:35 AM on Thursday 29 Jan 2015 (Local Time) from KBHB Reporting Station
Clear Clear  
Wind Chill: -18°   Ceiling: Unl
Heat Index: -18°   Visibility: 10mi
Dew Point: -18°   Wind: 0mph
Humidity: 100%   Direction: NA
Pressure: 30.28"   Gusts: NA
Location:  44.8808°N, 67.668°W
Report Text: KBHB 291235Z 00000KT 10SM CLR M18/M18 A3028 RMK AO1
Loading
Personal Weather Stations






























Interactive Weather Map New forecast layout! Learn more

10-Day Weather Forecast

Advertisements
Track Severe Weather on mobile